Time;durP1;ratioP1;P1;durP2;ratioP2;P2;SDS_P1;SDS_P2;PMS_P1;PMS_P2;Temp;Humidity;BMP_temperature;BMP_pressure;BME280_temperature;BME280_humidity;BME280_pressure;Samples;Min_cycle;Max_cycle;Signal;HPM_P1;HPM_P2
2021/04/05 00:01:03;;;;;;;;;;;;;;;5.01;89.03;101260.63;5095178;28;19915;-73
2021/04/05 00:03:28;;;;;;;;;;;;;;;5.02;88.77;101248.78;5091672;28;19982;-73
2021/04/05 00:05:54;;;;;;;;;;;;;;;4.96;88.78;101241.69;5075128;28;19916;-74
2021/04/05 00:08:19;;;;;;;;;;;;;;;4.90;88.85;101249.00;5108252;28;20258;-74
2021/04/05 00:10:49;;;;;;;;;;;;;;;4.91;89.26;101246.56;5112756;28;19911;-73
2021/04/05 00:13:16;;;;;;;;;;;;;;;4.93;89.29;101239.88;5095204;28;19929;-73
2021/04/05 00:15:41;;;;;;;;;;;;;;;4.91;89.07;101232.94;5113422;28;19960;-72
2021/04/05 00:18:06;;;;;;;;;;;;;;;4.88;89.31;101235.34;5095033;28;20343;-73
2021/04/05 00:20:35;;;;;;;;;;;;;;;4.96;89.48;101228.97;5091544;28;19912;-73
2021/04/05 00:23:01;;;;;;;;;;;;;;;4.95;89.43;101228.09;5080575;28;19918;-73
2021/04/05 00:25:26;;;;;;;;;;;;;;;4.95;89.38;101233.19;5092719;28;19912;-73
2021/04/05 00:27:51;;;;;;;;;;;;;;;4.93;89.49;101239.88;5092755;28;19974;-73
2021/04/05 00:30:22;;;;;;;;;;;;;;;4.94;89.77;101243.28;5075152;28;19951;-73
2021/04/05 00:32:47;;;;;;;;;;;;;;;4.94;89.85;101241.63;5071627;28;19912;-73
2021/04/05 00:35:20;;;;;;;;;;;;;;;5.04;89.61;101230.22;5079843;28;19969;-72
2021/04/05 00:37:46;;;;;;;;;;;;;;;5.03;89.96;101219.97;5088452;28;19912;-73
2021/04/05 00:40:14;;;;;;;;;;;;;;;5.07;90.07;101215.13;5092562;28;19912;-73
2021/04/05 00:42:41;;;;;;;;;;;;;;;5.07;90.02;101211.69;5091811;28;19969;-73
2021/04/05 00:45:10;;;;;;;;;;;;;;;5.06;89.95;101194.66;5088793;28;20010;-73
2021/04/05 00:47:36;;;;;;;;;;;;;;;5.10;90.16;101192.34;5107794;28;19912;-73
2021/04/05 00:50:04;;;;;;;;;;;;;;;5.17;90.14;101193.53;5074032;28;19920;-73
2021/04/05 00:52:30;;;;;;;;;;;;;;;5.08;90.29;101195.63;5091945;28;20362;-73
2021/04/05 00:54:55;;;;;;;;;;;;;;;5.09;90.20;101179.53;5092058;28;19916;-73
2021/04/05 00:57:20;;;;;;;;;;;;;;;5.05;90.65;101175.09;5092126;28;19912;-73
2021/04/05 00:59:46;;;;;;;;;;;;;;;5.13;90.90;101176.34;5073481;28;19939;-73
2021/04/05 01:02:12;;;;;;;;;;;;;;;5.15;90.78;101174.75;5090648;28;20301;-73
2021/04/05 01:04:37;;;;;;;;;;;;;;;5.20;90.88;101178.41;5091875;28;19920;-73
2021/04/05 01:07:02;;;;;;;;;;;;;;;5.20;90.82;101175.84;5092042;28;19919;-73
2021/04/05 01:09:27;;;;;;;;;;;;;;;5.14;91.05;101170.47;5079313;28;19919;-73
2021/04/05 01:11:53;;;;;;;;;;;;;;;5.31;91.42;101174.75;5091369;28;19916;-73
2021/04/05 01:14:18;;;;;;;;;;;;;;;5.48;91.66;101176.44;5091902;28;20010;-73
2021/04/05 01:16:45;;;;;;;;;;;;;;;5.59;91.37;101176.97;5091937;28;19916;-72
2021/04/05 01:19:10;;;;;;;;;;;;;;;5.68;91.55;101166.34;5091887;28;19922;-72
2021/04/05 01:21:38;;;;;;;;;;;;;;;5.93;91.10;101156.56;5090981;28;20440;-73
2021/04/05 01:24:03;;;;;;;;;;;;;;;6.09;90.72;101147.94;5091615;28;19916;-73
2021/04/05 01:26:33;;;;;;;;;;;;;;;6.24;89.58;101143.56;5091628;28;19920;-73
2021/04/05 01:28:58;;;;;;;;;;;;;;;6.38;89.34;101122.09;5091724;28;20430;-73
2021/04/05 01:31:23;;;;;;;;;;;;;;;6.55;88.71;101115.19;5091422;28;19916;-73
2021/04/05 01:33:48;;;;;;;;;;;;;;;6.68;88.35;101106.38;5091725;28;19904;-73
2021/04/05 01:36:15;;;;;;;;;;;;;;;6.75;87.54;101088.84;5073406;28;19920;-71
2021/04/05 01:38:42;;;;;;;;;;;;;;;6.82;87.36;101093.38;5091711;28;20274;-72
2021/04/05 01:41:11;;;;;;;;;;;;;;;6.88;87.13;101097.91;5091117;28;19919;-71
2021/04/05 01:43:37;;;;;;;;;;;;;;;6.88;87.07;101089.38;5091374;28;19911;-73
2021/04/05 01:46:03;;;;;;;;;;;;;;;6.88;86.94;101082.59;5091604;28;20300;-73
2021/04/05 01:48:29;;;;;;;;;;;;;;;6.96;86.62;101091.44;5076576;28;19912;-72
2021/04/05 01:51:05;;;;;;;;;;;;;;;7.01;86.18;101082.28;5097405;28;19912;-74
2021/04/05 01:53:30;;;;;;;;;;;;;;;7.07;85.74;101074.00;5078166;28;19929;-73
2021/04/05 01:55:59;;;;;;;;;;;;;;;7.04;85.60;101067.09;5079029;28;20362;-74
2021/04/05 01:58:24;;;;;;;;;;;;;;;7.08;85.43;101068.06;5091365;28;19912;-72
2021/04/05 02:00:50;;;;;;;;;;;;;;;7.06;85.45;101065.47;5076280;28;19959;-73
2021/04/05 02:03:15;;;;;;;;;;;;;;;7.03;85.29;101056.81;5074449;28;19916;-72
2021/04/05 02:05:47;;;;;;;;;;;;;;;7.08;85.30;101052.75;5091147;28;19919;-73
2021/04/05 02:08:12;;;;;;;;;;;;;;;7.06;85.19;101049.25;5086831;28;19915;-72
2021/04/05 02:10:37;;;;;;;;;;;;;;;7.09;84.78;101049.38;5111164;28;19968;-73
2021/04/05 02:13:03;;;;;;;;;;;;;;;7.08;84.74;101053.63;5093223;28;19915;-72
2021/04/05 02:15:31;;;;;;;;;;;;;;;7.11;83.97;101029.88;5111426;28;19915;-73
2021/04/05 02:17:57;;;;;;;;;;;;;;;7.14;83.71;101027.44;5111467;28;19946;-72
2021/04/05 02:20:22;;;;;;;;;;;;;;;7.17;82.54;101019.94;5111201;28;19954;-73
2021/04/05 02:22:48;;;;;;;;;;;;;;;7.14;82.24;101017.22;5097650;28;20057;-73
2021/04/05 02:25:18;;;;;;;;;;;;;;;7.23;81.43;101011.63;5090873;28;19923;-70
2021/04/05 02:27:44;;;;;;;;;;;;;;;7.18;81.03;101014.03;5072995;28;20458;-73
2021/04/05 02:30:09;;;;;;;;;;;;;;;7.23;80.87;100999.75;5090295;28;20313;-73
2021/04/05 02:32:37;;;;;;;;;;;;;;;7.22;80.67;100994.56;5078535;28;19927;-73
2021/04/05 02:35:02;;;;;;;;;;;;;;;7.32;80.02;100984.75;5094463;28;19915;-72
2021/04/05 02:37:27;;;;;;;;;;;;;;;7.33;79.70;100989.06;5084501;28;20034;-73
2021/04/05 02:39:53;;;;;;;;;;;;;;;7.39;79.12;100968.84;5082261;28;19916;-73
2021/04/05 02:42:19;;;;;;;;;;;;;;;7.44;79.01;100989.47;5092592;28;20377;-72
2021/04/05 02:44:45;;;;;;;;;;;;;;;7.41;78.74;100982.56;5115271;28;19916;-73
2021/04/05 02:47:10;;;;;;;;;;;;;;;7.43;78.54;100965.59;5096929;28;19911;-72
2021/04/05 02:49:36;;;;;;;;;;;;;;;7.48;78.43;100951.31;5115171;28;19915;-74
2021/04/05 02:52:01;;;;;;;;;;;;;;;7.48;78.36;100956.44;5114704;28;19946;-73
2021/04/05 02:54:27;;;;;;;;;;;;;;;7.48;78.58;100953.00;5114801;28;20403;-73
2021/04/05 02:56:53;;;;;;;;;;;;;;;7.56;78.02;100950.72;5096748;28;19911;-73
2021/04/05 02:59:20;;;;;;;;;;;;;;;7.59;77.58;100948.28;5096284;28;19938;-72
2021/04/05 03:01:45;;;;;;;;;;;;;;;7.64;76.94;100937.41;5096286;28;19911;-73
2021/04/05 03:04:11;;;;;;;;;;;;;;;7.66;77.22;100929.78;5114896;28;19911;-72
2021/04/05 03:06:36;;;;;;;;;;;;;;;7.70;76.82;100929.09;5096722;28;20353;-73
2021/04/05 03:09:05;;;;;;;;;;;;;;;7.78;76.22;100922.56;5114780;28;19912;-74
2021/04/05 03:11:30;;;;;;;;;;;;;;;7.76;76.59;100932.72;5095983;28;19982;-72
2021/04/05 03:13:55;;;;;;;;;;;;;;;7.71;76.66;100913.81;5096278;28;20393;-73
2021/04/05 03:16:22;;;;;;;;;;;;;;;7.75;76.93;100922.44;5091611;28;19939;-72
2021/04/05 03:18:48;;;;;;;;;;;;;;;7.76;76.58;100914.84;5094230;28;19995;-72
2021/04/05 03:21:14;;;;;;;;;;;;;;;7.73;76.65;100906.19;5093804;28;19916;-72
2021/04/05 03:23:39;;;;;;;;;;;;;;;7.70;76.40;100904.38;5075920;28;19912;-73
2021/04/05 03:26:05;;;;;;;;;;;;;;;7.71;76.71;100900.16;5094196;28;19912;-73
2021/04/05 03:28:30;;;;;;;;;;;;;;;7.73;76.28;100894.28;5094010;28;20000;-73
2021/04/05 03:31:04;;;;;;;;;;;;;;;7.73;76.61;100893.41;5093748;28;19912;-73
2021/04/05 03:33:42;;;;;;;;;;;;;;;7.76;76.44;100876.47;5110929;28;19918;-73
2021/04/05 03:36:36;;;;;;;;;;;;;;;7.74;76.41;100883.22;5114242;28;19916;-73
2021/04/05 03:39:02;;;;;;;;;;;;;;;7.80;76.66;100877.44;5096346;28;19955;-73
2021/04/05 03:41:30;;;;;;;;;;;;;;;7.82;76.71;100873.28;5095293;28;20004;-74
2021/04/05 03:44:05;;;;;;;;;;;;;;;7.87;76.31;100866.66;5114262;28;19911;-74
2021/04/05 03:46:32;;;;;;;;;;;;;;;7.88;76.09;100858.16;5113506;28;19989;-73
2021/04/05 03:49:07;;;;;;;;;;;;;;;7.91;76.37;100853.16;5114218;28;19990;-73
2021/04/05 03:51:35;;;;;;;;;;;;;;;7.96;76.32;100853.28;5113573;28;19911;-73
2021/04/05 03:54:06;;;;;;;;;;;;;;;7.96;76.30;100858.41;5084701;28;19920;-74
2021/04/05 03:56:43;;;;;;;;;;;;;;;7.97;76.06;100853.34;5092843;28;19930;-73
2021/04/05 03:59:11;;;;;;;;;;;;;;;7.96;76.21;100851.59;5093385;28;19978;-73
2021/04/05 04:01:42;;;;;;;;;;;;;;;7.97;75.67;100853.34;5092627;28;20285;-72
2021/04/05 04:05:10;;;;;;;;;;;;;;;8.00;76.05;100832.97;5080663;28;19912;-73
2021/04/05 04:07:22;;;;;;;;;;;;;;;7.98;75.74;100843.97;5079652;28;19919;-73
2021/04/05 04:09:49;;;;;;;;;;;;;;;8.00;75.75;100838.09;5075218;28;19920;-73
2021/04/05 04:12:16;;;;;;;;;;;;;;;8.02;76.25;100827.91;5074762;28;19919;-73
2021/04/05 04:14:41;;;;;;;;;;;;;;;7.99;75.78;100828.69;5075005;28;20289;-72
2021/04/05 04:17:07;;;;;;;;;;;;;;;8.03;75.78;100822.84;5083079;28;19918;-73
2021/04/05 04:19:33;;;;;;;;;;;;;;;8.02;76.24;100816.00;5113540;28;19919;-73
2021/04/05 04:21:59;;;;;;;;;;;;;;;7.99;76.70;100815.03;5094890;28;19912;-72
2021/04/05 04:24:25;;;;;;;;;;;;;;;8.00;76.81;100811.66;5095108;28;19912;-73
2021/04/05 04:26:50;;;;;;;;;;;;;;;8.00;77.01;100817.63;5095199;28;19919;-74
2021/04/05 04:29:20;;;;;;;;;;;;;;;7.97;76.74;100798.75;5113396;28;20501;-73
2021/04/05 04:31:45;;;;;;;;;;;;;;;7.95;77.17;100798.72;5092473;28;19998;-73
2021/04/05 04:34:13;;;;;;;;;;;;;;;7.93;77.44;100777.34;5092582;28;20003;-72
2021/04/05 04:36:38;;;;;;;;;;;;;;;7.91;77.39;100786.66;5092654;28;20013;-72
2021/04/05 04:39:04;;;;;;;;;;;;;;;7.89;77.97;100782.31;5092391;28;19920;-72
2021/04/05 04:41:30;;;;;;;;;;;;;;;7.88;77.66;100781.44;5092310;28;19949;-73
2021/04/05 04:43:56;;;;;;;;;;;;;;;7.88;78.02;100768.63;5092615;28;19947;-73
2021/04/05 04:46:21;;;;;;;;;;;;;;;7.87;78.06;100769.47;5092674;28;19912;-73
2021/04/05 04:48:47;;;;;;;;;;;;;;;7.86;77.96;100756.63;5074340;28;19998;-73
2021/04/05 04:51:12;;;;;;;;;;;;;;;7.85;77.62;100760.00;5092124;28;19911;-73
2021/04/05 04:53:37;;;;;;;;;;;;;;;7.87;77.49;100753.25;5074488;28;20334;-73
2021/04/05 04:56:03;;;;;;;;;;;;;;;7.86;77.33;100754.94;5074108;28;19926;-72
2021/04/05 04:58:28;;;;;;;;;;;;;;;7.88;77.32;100745.63;5092414;28;19919;-73
2021/04/05 05:00:53;;;;;;;;;;;;;;;7.87;76.79;100738.78;5108012;28;19920;-74
2021/04/05 05:03:19;;;;;;;;;;;;;;;7.88;76.79;100745.63;5112395;28;19918;-72
2021/04/05 05:05:45;;;;;;;;;;;;;;;7.91;76.43;100735.50;5094289;28;19912;-73
2021/04/05 05:08:10;;;;;;;;;;;;;;;7.90;76.77;100722.66;5100161;28;19912;-72
2021/04/05 05:10:36;;;;;;;;;;;;;;;7.91;77.46;100739.75;5091757;28;20413;-73
2021/04/05 05:13:02;;;;;;;;;;;;;;;7.78;78.72;100733.34;5092117;28;19912;-73
2021/04/05 05:15:28;;;;;;;;;;;;;;;7.38;80.97;100788.22;5092034;28;20287;-76
2021/04/05 05:17:53;;;;;;;;;;;;;;;6.96;82.78;100801.97;5099319;28;19916;-77
2021/04/05 05:20:19;;;;;;;;;;;;;;;6.50;83.58;100790.00;5092162;28;19934;-77
2021/04/05 05:22:45;;;;;;;;;;;;;;;6.26;85.71;100814.56;5104106;28;19912;-78
2021/04/05 05:25:14;;;;;;;;;;;;;;;6.03;85.69;100821.25;5083056;28;19919;-78
2021/04/05 05:27:40;;;;;;;;;;;;;;;5.80;84.29;100823.69;5092557;28;19912;-77
2021/04/05 05:30:10;;;;;;;;;;;;;;;5.74;85.50;100832.75;5090429;28;19918;-78
2021/04/05 05:32:36;;;;;;;;;;;;;;;5.65;85.66;100835.78;5105142;28;19994;-77
2021/04/05 05:35:02;;;;;;;;;;;;;;;5.61;86.42;100832.22;5104432;28;20429;-77
2021/04/05 05:37:27;;;;;;;;;;;;;;;5.59;87.42;100851.69;5104759;28;19912;-77
2021/04/05 05:39:52;;;;;;;;;;;;;;;5.51;86.81;100842.81;5083485;28;19965;-77
2021/04/05 05:42:23;;;;;;;;;;;;;;;5.48;87.27;100840.13;5130617;22;20305;-76
2021/04/05 05:44:53;;;;;;;;;;;;;;;5.45;87.08;100844.22;5079040;28;20033;-76
2021/04/05 05:47:36;;;;;;;;;;;;;;;5.40;87.14;100856.75;5102704;28;19919;-76
2021/04/05 05:50:10;;;;;;;;;;;;;;;5.38;87.99;100857.50;5103194;28;20572;-75
2021/04/05 05:52:48;;;;;;;;;;;;;;;5.34;88.05;100859.03;5086633;28;19911;-76
2021/04/05 05:55:32;;;;;;;;;;;;;;;5.30;88.37;100872.44;5078905;28;19935;-75
2021/04/05 05:58:26;;;;;;;;;;;;;;;5.23;87.76;100873.84;5101383;28;19916;-77
2021/04/05 06:00:56;;;;;;;;;;;;;;;5.21;87.30;100874.59;5062073;28;19912;-75
2021/04/05 06:03:24;;;;;;;;;;;;;;;5.18;87.35;100874.41;5077252;28;19916;-75
2021/04/05 06:06:07;;;;;;;;;;;;;;;5.14;87.65;100867.44;5095957;28;20314;-76
2021/04/05 06:08:43;;;;;;;;;;;;;;;5.10;86.48;100860.47;5096713;28;19918;-75
2021/04/05 06:11:27;;;;;;;;;;;;;;;5.12;86.02;100862.28;5080330;28;19957;-75
2021/04/05 06:14:01;;;;;;;;;;;;;;;5.07;85.05;100838.28;5078235;28;19919;-74
2021/04/05 06:16:26;;;;;;;;;;;;;;;5.02;85.11;100841.44;5105099;28;19916;-75
2021/04/05 06:19:07;;;;;;;;;;;;;;;5.04;84.79;100850.88;5087261;28;19919;-76
2021/04/05 06:21:33;;;;;;;;;;;;;;;5.06;85.36;100848.41;5082527;28;19918;-75
2021/04/05 06:23:59;;;;;;;;;;;;;;;5.01;86.00;100858.38;5078282;28;19924;-75
2021/04/05 06:26:40;;;;;;;;;;;;;;;5.02;85.87;100871.97;5079931;28;20000;-75
2021/04/05 06:29:19;;;;;;;;;;;;;;;4.88;85.81;100892.59;5101341;28;19912;-77
2021/04/05 06:31:48;;;;;;;;;;;;;;;4.67;86.94;100906.81;5090691;28;20005;-77
2021/04/05 06:34:32;;;;;;;;;;;;;;;4.47;86.75;100920.22;5077250;28;19911;-75
2021/04/05 06:36:57;;;;;;;;;;;;;;;4.31;87.86;100919.50;5079753;28;19919;-76
2021/04/05 06:39:26;;;;;;;;;;;;;;;4.22;87.93;100921.53;5080030;28;20479;-77
2021/04/05 06:41:55;;;;;;;;;;;;;;;4.11;87.51;100945.56;5096914;28;19919;-77
2021/04/05 06:44:29;;;;;;;;;;;;;;;4.05;88.15;100955.44;5081938;28;19961;-77
2021/04/05 06:47:13;;;;;;;;;;;;;;;3.90;87.62;100952.97;5097851;28;19912;-76
2021/04/05 06:49:57;;;;;;;;;;;;;;;3.81;87.17;100969.38;5099642;28;19912;-78
2021/04/05 06:52:37;;;;;;;;;;;;;;;3.69;87.10;100962.88;5079389;28;19946;-74
2021/04/05 06:55:03;;;;;;;;;;;;;;;3.74;87.17;100976.69;5097220;28;20017;-76
2021/04/05 06:57:35;;;;;;;;;;;;;;;3.69;86.15;100985.75;5077750;28;19912;-76
2021/04/05 07:00:04;;;;;;;;;;;;;;;3.66;84.68;100982.16;5097367;28;20313;-76
2021/04/05 07:02:48;;;;;;;;;;;;;;;3.69;84.61;100974.72;5095574;28;20018;-76
2021/04/05 07:05:28;;;;;;;;;;;;;;;3.78;84.69;100982.81;5102453;28;20387;-75
2021/04/05 07:08:01;;;;;;;;;;;;;;;3.84;83.06;100980.59;5097283;28;19912;-76
2021/04/05 07:10:31;;;;;;;;;;;;;;;3.73;81.95;100969.88;5082741;28;20000;-76
2021/04/05 07:13:00;;;;;;;;;;;;;;;3.59;83.67;101010.59;5095466;28;19924;-76
2021/04/05 07:15:44;;;;;;;;;;;;;;;3.40;85.22;101008.69;5078092;28;19916;-76
2021/04/05 07:18:31;;;;;;;;;;;;;;;3.40;85.69;101001.94;5079050;28;19920;-74
2021/04/05 07:21:19;;;;;;;;;;;;;;;3.40;85.03;101011.22;5101773;28;19919;-76
2021/04/05 07:23:44;;;;;;;;;;;;;;;3.37;85.41;101022.09;5104361;28;19920;-75
2021/04/05 07:26:20;;;;;;;;;;;;;;;3.36;85.30;101015.28;5105712;28;19911;-77
2021/04/05 07:28:52;;;;;;;;;;;;;;;3.35;81.99;101016.06;5087206;28;19919;-76
2021/04/05 07:31:23;;;;;;;;;;;;;;;3.36;79.81;101022.00;5096114;28;20010;-77
2021/04/05 07:33:50;;;;;;;;;;;;;;;3.42;78.47;101022.34;5082050;28;19923;-76
2021/04/05 07:36:30;;;;;;;;;;;;;;;3.42;78.01;101046.06;5099436;28;19922;-77
2021/04/05 07:38:56;;;;;;;;;;;;;;;3.43;77.08;101050.34;5084858;28;19919;-77
2021/04/05 07:41:24;;;;;;;;;;;;;;;3.44;75.49;101051.22;5083470;28;19911;-76
2021/04/05 07:44:04;;;;;;;;;;;;;;;3.42;75.35;101060.44;5099919;28;20402;-77
2021/04/05 07:46:34;;;;;;;;;;;;;;;3.43;73.99;101052.91;5103338;28;19912;-76
2021/04/05 07:49:18;;;;;;;;;;;;;;;3.53;73.66;101048.31;5082573;28;19911;-76
2021/04/05 07:51:46;;;;;;;;;;;;;;;3.56;72.14;101049.34;5098571;28;20037;-77
2021/04/05 07:54:12;;;;;;;;;;;;;;;3.59;74.19;101044.47;5096369;28;20016;-74
2021/04/05 07:56:46;;;;;;;;;;;;;;;3.64;69.55;101032.91;5104233;28;19947;-77
2021/04/05 07:59:17;;;;;;;;;;;;;;;3.74;69.62;101057.13;5085180;28;19915;-77
2021/04/05 08:01:49;;;;;;;;;;;;;;;3.87;70.13;101056.09;5086056;28;19923;-76
2021/04/05 08:04:30;;;;;;;;;;;;;;;3.94;67.86;101055.66;5083514;28;19956;-76
2021/04/05 08:07:02;;;;;;;;;;;;;;;3.92;68.62;101044.53;5082725;28;19912;-76
2021/04/05 08:09:37;;;;;;;;;;;;;;;3.96;68.68;101056.63;5080270;28;19998;-76
2021/04/05 08:12:05;;;;;;;;;;;;;;;3.82;68.12;101080.41;5074171;28;19920;-76
2021/04/05 08:14:37;;;;;;;;;;;;;;;3.75;68.63;101081.75;5080473;28;20006;-77
2021/04/05 08:17:11;;;;;;;;;;;;;;;3.63;71.36;101103.94;5097832;28;19920;-75
2021/04/05 08:19:54;;;;;;;;;;;;;;;3.52;72.92;101123.63;5102170;28;19912;-78
2021/04/05 08:22:38;;;;;;;;;;;;;;;3.58;73.01;101118.94;5088926;28;20269;-75
2021/04/05 08:25:03;;;;;;;;;;;;;;;3.59;67.37;101112.19;5076189;28;19919;-76
2021/04/05 08:27:47;;;;;;;;;;;;;;;3.69;66.01;101115.31;5093964;28;19912;-76
2021/04/05 08:30:21;;;;;;;;;;;;;;;3.82;68.18;101104.13;5080242;28;19934;-74
2021/04/05 08:33:05;;;;;;;;;;;;;;;3.88;65.81;101106.13;5068681;28;19994;-77
2021/04/05 08:35:40;;;;;;;;;;;;;;;4.25;66.68;101107.34;5096815;28;19915;-77
2021/04/05 08:38:12;;;;;;;;;;;;;;;4.95;63.01;101115.22;5104284;28;19957;-77
2021/04/05 08:40:44;;;;;;;;;;;;;;;5.68;61.36;101098.41;5089472;28;19947;-77
2021/04/05 08:43:14;;;;;;;;;;;;;;;5.94;58.40;101094.56;5082332;28;19950;-76
2021/04/05 08:45:43;;;;;;;;;;;;;;;5.60;60.95;101117.56;5102704;28;19941;-77
2021/04/05 08:48:11;;;;;;;;;;;;;;;5.36;61.17;101127.44;5103155;28;19934;-78
2021/04/05 08:50:38;;;;;;;;;;;;;;;4.89;62.23;101128.50;5106750;28;19919;-76
2021/04/05 08:53:03;;;;;;;;;;;;;;;4.78;67.41;101164.38;5105921;28;19967;-77
2021/04/05 08:55:31;;;;;;;;;;;;;;;4.64;68.81;101158.56;5090222;28;19924;-78
2021/04/05 08:58:07;;;;;;;;;;;;;;;4.37;69.55;101168.16;5085379;28;20021;-76
2021/04/05 09:00:41;;;;;;;;;;;;;;;4.29;69.13;101154.16;5107582;28;19920;-76
2021/04/05 09:03:11;;;;;;;;;;;;;;;4.13;68.39;101165.16;5082905;28;19912;-74
2021/04/05 09:05:43;;;;;;;;;;;;;;;4.28;69.33;101175.28;5103588;28;19912;-75
2021/04/05 09:08:10;;;;;;;;;;;;;;;4.33;67.45;101182.38;5086247;28;20300;-76
2021/04/05 09:10:49;;;;;;;;;;;;;;;4.06;64.84;101191.03;5081078;28;19959;-78
2021/04/05 09:13:28;;;;;;;;;;;;;;;3.91;66.43;101198.69;5078283;28;20373;-77
2021/04/05 09:16:11;;;;;;;;;;;;;;;3.99;62.67;101204.19;5097264;28;19968;-75
2021/04/05 09:18:55;;;;;;;;;;;;;;;4.14;59.93;101194.88;5075268;28;20030;-77
2021/04/05 09:21:27;;;;;;;;;;;;;;;4.27;62.09;101202.38;5093941;28;20383;-77
2021/04/05 09:24:05;;;;;;;;;;;;;;;4.37;60.99;101199.53;5076284;28;19918;-76
2021/04/05 09:26:56;;;;;;;;;;;;;;;4.47;60.57;101194.94;5100356;28;19916;-76
2021/04/05 09:29:24;;;;;;;;;;;;;;;4.54;59.80;101197.88;5086831;28;20010;-75
2021/04/05 09:31:58;;;;;;;;;;;;;;;4.58;59.29;101199.84;5101403;28;19911;-77
2021/04/05 09:34:53;;;;;;;;;;;;;;;4.63;57.29;101198.41;5108389;28;19912;-76
2021/04/05 09:37:21;;;;;;;;;;;;;;;4.69;54.94;101203.81;5084417;28;19918;-77
2021/04/05 09:39:49;;;;;;;;;;;;;;;4.51;50.79;101190.09;5090528;28;19955;-76
2021/04/05 09:42:27;;;;;;;;;;;;;;;4.54;52.23;101223.34;5107093;28;19955;-77
2021/04/05 09:45:02;;;;;;;;;;;;;;;4.67;53.26;101227.44;5111456;28;19920;-78
2021/04/05 09:47:36;;;;;;;;;;;;;;;4.48;54.17;101224.69;5105258;28;19916;-76
2021/04/05 09:50:21;;;;;;;;;;;;;;;4.35;52.67;101216.41;5068440;28;19912;-75
2021/04/05 09:53:14;;;;;;;;;;;;;;;4.57;50.71;101212.47;5099917;28;19919;-77
2021/04/05 09:55:46;;;;;;;;;;;;;;;4.88;52.44;101203.13;5083539;28;19916;-77
2021/04/05 09:58:14;;;;;;;;;;;;;;;5.50;50.23;101238.53;5098582;28;19973;-76
2021/04/05 10:00:41;;;;;;;;;;;;;;;5.61;48.71;101229.78;5100429;28;19920;-79
2021/04/05 10:03:08;;;;;;;;;;;;;;;5.40;48.91;101236.34;5100932;28;20441;-76
2021/04/05 10:05:34;;;;;;;;;;;;;;;5.39;51.16;101213.31;5103496;28;20312;-76
2021/04/05 10:08:00;;;;;;;;;;;;;;;4.88;52.74;101235.34;5104015;28;20407;-77
2021/04/05 10:10:27;;;;;;;;;;;;;;;4.99;54.19;101259.69;5104371;28;19950;-77
2021/04/05 10:12:53;;;;;;;;;;;;;;;5.01;53.24;101247.91;5075107;28;19912;-77
2021/04/05 10:15:21;;;;;;;;;;;;;;;4.79;53.57;101271.34;5099590;28;19920;-76
2021/04/05 10:17:53;;;;;;;;;;;;;;;4.98;53.83;101266.44;5077162;28;21350;-77
2021/04/05 10:20:23;;;;;;;;;;;;;;;5.09;52.54;101267.00;5095905;28;20002;-74
2021/04/05 10:22:49;;;;;;;;;;;;;;;5.39;53.17;101277.91;5090594;28;19920;-77
2021/04/05 10:25:18;;;;;;;;;;;;;;;5.68;50.58;101246.25;5099232;28;19919;-77
2021/04/05 10:27:44;;;;;;;;;;;;;;;5.31;47.55;101228.22;5088697;28;19912;-76
2021/04/05 10:30:12;;;;;;;;;;;;;;;6.76;49.51;101259.09;5092607;28;19916;-75
2021/04/05 10:32:39;;;;;;;;;;;;;;;8.26;45.84;101261.25;5069905;28;19923;-76
2021/04/05 10:35:05;;;;;;;;;;;;;;;7.06;44.67;101261.28;5071771;28;19947;-76
2021/04/05 10:37:32;;;;;;;;;;;;;;;6.21;48.38;101287.16;5075793;28;19958;-75
2021/04/05 10:39:59;;;;;;;;;;;;;;;5.54;51.74;101293.97;5092327;28;19922;-75
2021/04/05 10:42:33;;;;;;;;;;;;;;;5.93;51.45;101284.06;5109956;28;20278;-74
2021/04/05 10:45:03;;;;;;;;;;;;;;;7.48;49.60;101275.06;5110310;28;19915;-74
2021/04/05 10:47:31;;;;;;;;;;;;;;;6.30;48.45;101280.75;5087608;28;20446;-76
2021/04/05 10:49:57;;;;;;;;;;;;;;;5.40;50.71;101287.28;5091171;28;19916;-77
2021/04/05 10:52:33;;;;;;;;;;;;;;;4.86;50.64;101288.69;5071838;28;20269;-74
2021/04/05 10:55:00;;;;;;;;;;;;;;;4.94;54.65;101348.53;5054549;28;19977;-74
2021/04/05 10:57:25;;;;;;;;;;;;;;;3.80;64.04;101354.75;5053388;28;19986;-74
2021/04/05 10:59:51;;;;;;;;;;;;;;;3.26;65.81;101371.00;5071226;28;20369;-76
2021/04/05 11:02:20;;;;;;;;;;;;;;;3.19;65.68;101355.25;5084655;28;19918;-76
2021/04/05 11:04:52;;;;;;;;;;;;;;;4.09;57.33;101345.41;5082388;28;19972;-75
2021/04/05 11:07:20;;;;;;;;;;;;;;;5.34;55.32;101345.56;5095193;28;20015;-75
2021/04/05 11:09:46;;;;;;;;;;;;;;;6.42;50.12;101343.44;5084947;28;19939;-74
2021/04/05 11:12:12;;;;;;;;;;;;;;;7.25;49.49;101337.94;5098290;28;20368;-74
2021/04/05 11:14:37;;;;;;;;;;;;;;;7.84;48.38;101328.59;5093686;28;19916;-73
2021/04/05 11:17:04;;;;;;;;;;;;;;;8.04;47.62;101328.59;5093265;28;20369;-75
2021/04/05 11:19:47;;;;;;;;;;;;;;;8.41;44.89;101319.88;5075349;28;19957;-75
2021/04/05 11:22:17;;;;;;;;;;;;;;;7.27;46.70;101326.13;5094188;28;19911;-74
2021/04/05 11:24:42;;;;;;;;;;;;;;;5.90;48.85;101309.41;5113871;28;20395;-75
2021/04/05 11:27:10;;;;;;;;;;;;;;;4.94;50.82;101338.34;5095360;28;19916;-74
2021/04/05 11:29:36;;;;;;;;;;;;;;;6.06;51.26;101347.59;5086978;28;19915;-74
2021/04/05 11:32:02;;;;;;;;;;;;;;;6.72;48.08;101338.03;5106984;28;20340;-74
2021/04/05 11:34:34;;;;;;;;;;;;;;;6.75;48.72;101340.72;5076718;28;19920;-74
2021/04/05 11:37:03;;;;;;;;;;;;;;;6.47;49.46;101329.19;5073725;28;19999;-73
2021/04/05 11:39:30;;;;;;;;;;;;;;;6.42;48.06;101327.25;5093618;28;19968;-74
2021/04/05 11:41:57;;;;;;;;;;;;;;;6.07;47.98;101336.59;5083190;28;20011;-73
2021/04/05 11:44:23;;;;;;;;;;;;;;;6.27;49.43;101329.94;5099733;28;19976;-71
2021/04/05 11:46:49;;;;;;;;;;;;;;;6.17;51.10;101333.69;5078246;28;19912;-73
2021/04/05 11:49:14;;;;;;;;;;;;;;;5.71;47.90;101342.38;5092539;28;19912;-75
2021/04/05 11:51:58;;;;;;;;;;;;;;;5.54;46.89;101339.84;5094134;28;19911;-74
2021/04/05 11:54:24;;;;;;;;;;;;;;;5.72;49.20;101346.66;5112907;28;19977;-73
2021/04/05 11:56:50;;;;;;;;;;;;;;;5.71;47.69;101337.28;5091049;28;19919;-73
2021/04/05 11:59:23;;;;;;;;;;;;;;;5.86;47.62;101343.16;5073697;28;20433;-76
2021/04/05 12:01:54;;;;;;;;;;;;;;;5.23;45.62;101356.88;5082922;28;19947;-72
2021/04/05 12:04:24;;;;;;;;;;;;;;;4.81;46.69;101350.31;5083434;28;20380;-75
2021/04/05 12:06:56;;;;;;;;;;;;;;;5.29;49.75;101342.78;5108681;28;20442;-73
2021/04/05 12:09:21;;;;;;;;;;;;;;;5.60;49.35;101352.91;5100555;28;19920;-73
2021/04/05 12:11:48;;;;;;;;;;;;;;;5.55;46.87;101356.00;5106116;28;19938;-73
2021/04/05 12:14:22;;;;;;;;;;;;;;;5.77;46.53;101363.06;5087984;28;19927;-75
2021/04/05 12:19:20;;;;;;;;;;;;;;;5.54;45.94;101367.88;5117153;22;20463;-74
2021/04/05 12:21:49;;;;;;;;;;;;;;;4.57;60.96;101411.81;5076632;28;19916;-73
2021/04/05 12:24:14;;;;;;;;;;;;;;;3.55;68.15;101428.59;5081003;28;19912;-73
2021/04/05 12:26:39;;;;;;;;;;;;;;;2.80;72.87;101439.16;5095924;28;19918;-72
2021/04/05 12:29:06;;;;;;;;;;;;;;;2.26;76.80;101446.56;5083569;28;19911;-73
2021/04/05 12:31:32;;;;;;;;;;;;;;;1.77;79.02;101458.47;5096743;28;19911;-73
2021/04/05 12:34:06;;;;;;;;;;;;;;;1.64;78.20;101432.22;5080438;28;19912;-77
2021/04/05 12:36:32;;;;;;;;;;;;;;;2.15;77.04;101422.19;5090811;28;19915;-78
2021/04/05 12:38:58;;;;;;;;;;;;;;;2.72;75.12;101420.03;5100263;28;19919;-80
2021/04/05 12:41:24;;;;;;;;;;;;;;;2.53;74.98;101436.47;5090012;28;20018;-79
2021/04/05 12:43:51;;;;;;;;;;;;;;;2.40;77.19;101437.34;5085424;28;20443;-78
2021/04/05 12:46:17;;;;;;;;;;;;;;;2.20;77.34;101436.03;5086317;28;19959;-78
2021/04/05 12:48:43;;;;;;;;;;;;;;;2.54;75.78;101425.56;5091852;28;19918;-78
2021/04/05 12:51:10;;;;;;;;;;;;;;;3.03;73.18;101424.53;5087878;28;19916;-78
2021/04/05 12:53:36;;;;;;;;;;;;;;;2.87;73.17;101462.38;5111908;28;19916;-77
2021/04/05 12:56:03;;;;;;;;;;;;;;;2.00;78.53;101461.72;5087714;28;19951;-80
2021/04/05 12:58:30;;;;;;;;;;;;;;;1.57;80.05;101458.75;5088866;28;19939;-79
2021/04/05 13:00:55;;;;;;;;;;;;;;;1.65;80.86;101442.44;5097594;28;19912;-80
2021/04/05 13:03:23;;;;;;;;;;;;;;;1.76;81.64;101440.66;5111827;28;19926;-78